createdAt,value
2023-04-12T00:01:08.888Z,6.20
2023-04-12T00:03:36.490Z,6.53
2023-04-12T00:06:03.818Z,7.80
2023-04-12T00:08:33.826Z,6.67
2023-04-12T00:11:03.561Z,7.07
2023-04-12T00:13:31.286Z,6.43
2023-04-12T00:15:58.305Z,6.00
2023-04-12T00:18:26.220Z,5.90
2023-04-12T00:20:53.671Z,6.13
2023-04-12T00:23:21.249Z,5.97
2023-04-12T00:25:48.414Z,6.67
2023-04-12T00:28:16.300Z,6.33
2023-04-12T00:30:44.049Z,6.13
2023-04-12T00:33:11.119Z,5.50
2023-04-12T00:35:38.204Z,7.60
2023-04-12T00:38:10.333Z,5.60
2023-04-12T00:40:46.858Z,6.00
2023-04-12T00:43:18.847Z,8.13
2023-04-12T00:45:49.689Z,6.03
2023-04-12T00:48:19.413Z,6.13
2023-04-12T00:50:47.516Z,7.63
2023-04-12T00:53:15.113Z,9.30
2023-04-12T00:55:44.970Z,6.33
2023-04-12T00:58:13.621Z,6.47
2023-04-12T01:00:40.879Z,5.87
2023-04-12T01:03:11.920Z,6.60
2023-04-12T01:06:09.737Z,7.87
2023-04-12T01:08:58.188Z,8.00
2023-04-12T01:11:44.913Z,7.20
2023-04-12T01:14:40.011Z,5.83
2023-04-12T01:17:09.445Z,6.77
2023-04-12T01:20:18.633Z,5.37
2023-04-12T01:22:46.368Z,7.00
2023-04-12T01:26:02.626Z,19.73
2023-04-12T01:28:34.537Z,6.60
2023-04-12T01:31:04.318Z,5.77
2023-04-12T01:33:33.707Z,6.40
2023-04-12T01:36:04.561Z,7.03
2023-04-12T01:38:35.434Z,5.60
2023-04-12T01:41:02.545Z,6.57
2023-04-12T01:43:29.458Z,5.60
2023-04-12T01:45:56.489Z,5.53
2023-04-12T01:48:23.488Z,6.63
2023-04-12T01:51:07.268Z,8.47
2023-04-12T01:53:50.906Z,6.53
2023-04-12T01:56:19.764Z,6.10
2023-04-12T01:58:49.060Z,5.93
2023-04-12T02:01:19.153Z,5.40
2023-04-12T02:03:49.934Z,5.57
2023-04-12T02:06:22.648Z,5.57
2023-04-12T02:08:50.651Z,5.83
2023-04-12T02:11:17.612Z,5.57
2023-04-12T02:13:44.895Z,6.87
2023-04-12T02:16:14.135Z,7.43
2023-04-12T02:18:42.417Z,7.17
2023-04-12T02:21:13.457Z,6.13
2023-04-12T02:23:41.901Z,5.60
2023-04-12T02:26:08.938Z,6.37
2023-04-12T02:28:37.292Z,6.87
2023-04-12T02:31:06.946Z,7.23
2023-04-12T02:33:35.730Z,10.87
2023-04-12T02:36:11.233Z,6.30
2023-04-12T02:38:38.693Z,5.40
2023-04-12T02:41:07.726Z,5.87
2023-04-12T02:43:35.794Z,7.87
2023-04-12T02:46:08.742Z,7.57
2023-04-12T02:48:46.305Z,8.80
2023-04-12T02:51:13.544Z,6.03
2023-04-12T02:53:42.497Z,6.20
2023-04-12T02:56:19.151Z,7.77
2023-04-12T02:58:49.612Z,9.30
2023-04-12T03:01:26.706Z,6.03
2023-04-12T03:04:17.148Z,7.13
2023-04-12T03:06:54.141Z,6.37
2023-04-12T03:09:38.682Z,5.83
2023-04-12T03:12:06.654Z,5.73
2023-04-12T03:14:38.494Z,7.83
2023-04-12T03:17:07.631Z,6.23
2023-04-12T03:19:36.901Z,7.43
2023-04-12T03:22:05.137Z,6.83
2023-04-12T03:24:35.209Z,10.27
2023-04-12T03:27:04.566Z,6.67
2023-04-12T03:29:34.417Z,7.53
2023-04-12T03:32:02.224Z,6.30
2023-04-12T03:34:32.445Z,6.50
2023-04-12T03:37:04.899Z,6.50
2023-04-12T03:39:41.148Z,8.23
2023-04-12T03:42:21.509Z,7.30
2023-04-12T03:44:57.210Z,6.63
2023-04-12T03:47:24.296Z,7.97
2023-04-12T03:50:10.332Z,8.73
2023-04-12T03:52:40.137Z,8.60
2023-04-12T03:55:08.421Z,16.97
2023-04-12T03:57:36.635Z,10.73
2023-04-12T04:00:08.532Z,12.50
2023-04-12T04:02:54.318Z,14.83
2023-04-12T04:05:21.699Z,13.80
2023-04-12T04:07:48.974Z,12.97
2023-04-12T04:10:16.213Z,8.13
2023-04-12T04:12:45.035Z,7.40
2023-04-12T04:15:14.258Z,11.33
2023-04-12T04:17:42.849Z,8.17
2023-04-12T04:20:12.623Z,8.23
2023-04-12T04:22:44.798Z,8.43
2023-04-12T04:25:14.315Z,8.90
2023-04-12T04:27:47.050Z,10.50
2023-04-12T04:30:17.283Z,9.00
2023-04-12T04:32:46.232Z,8.40
2023-04-12T04:35:16.825Z,7.83
2023-04-12T04:38:10.303Z,12.23
2023-04-12T04:40:38.797Z,16.97
2023-04-12T04:43:09.734Z,13.57
2023-04-12T04:45:41.435Z,8.70
2023-04-12T04:48:08.562Z,12.13
2023-04-12T04:50:35.577Z,10.47
2023-04-12T04:53:03.850Z,8.47
2023-04-12T04:55:33.162Z,10.20
2023-04-12T04:58:00.183Z,11.70
2023-04-12T05:00:27.887Z,8.93
2023-04-12T05:02:57.318Z,12.53
2023-04-12T05:05:27.928Z,13.77
2023-04-12T05:08:04.569Z,13.80
2023-04-12T05:10:33.611Z,10.80
2023-04-12T05:13:02.695Z,10.57
2023-04-12T05:15:31.975Z,10.80
2023-04-12T05:17:59.904Z,8.50
2023-04-12T05:20:27.261Z,8.50
2023-04-12T05:22:54.202Z,10.40
2023-04-12T05:25:21.322Z,8.70
2023-04-12T05:27:55.497Z,10.33
2023-04-12T05:30:22.709Z,9.90
2023-04-12T05:32:51.029Z,9.37
2023-04-12T05:35:18.919Z,10.57
2023-04-12T05:37:47.704Z,10.33
2023-04-12T05:40:14.923Z,10.33
2023-04-12T05:42:42.626Z,10.83
2023-04-12T05:45:10.915Z,9.73
2023-04-12T05:47:38.459Z,11.53
2023-04-12T05:50:07.063Z,13.27
2023-04-12T05:52:34.477Z,14.60
2023-04-12T05:55:01.981Z,8.77
2023-04-12T05:57:30.474Z,9.60
2023-04-12T05:59:58.309Z,9.57
2023-04-12T06:02:26.264Z,13.00
2023-04-12T06:04:55.380Z,11.90
2023-04-12T06:07:22.995Z,12.00
2023-04-12T06:09:50.199Z,10.20
2023-04-12T06:12:17.955Z,10.60
2023-04-12T06:14:45.677Z,9.20
2023-04-12T06:17:12.905Z,11.50
2023-04-12T06:19:40.461Z,10.13
2023-04-12T06:22:07.510Z,11.37
2023-04-12T06:24:34.708Z,9.20
2023-04-12T06:27:01.821Z,8.73
2023-04-12T06:29:28.868Z,10.93
2023-04-12T06:31:56.078Z,11.87
2023-04-12T06:34:23.034Z,11.73
2023-04-12T06:36:51.161Z,11.20
2023-04-12T06:39:19.776Z,10.40
2023-04-12T06:41:50.551Z,12.10
2023-04-12T06:44:20.278Z,12.90
2023-04-12T06:46:47.381Z,11.43
2023-04-12T06:49:14.350Z,10.17
2023-04-12T06:51:41.372Z,4.63
2023-04-12T06:54:08.352Z,8.17
2023-04-12T06:56:37.995Z,7.07
2023-04-12T06:59:05.164Z,8.60
2023-04-12T07:01:34.654Z,7.60
2023-04-12T07:04:01.857Z,3.40
2023-04-12T07:06:28.925Z,14.27
2023-04-12T07:08:56.320Z,2.00
2023-04-12T07:11:23.989Z,4.70
2023-04-12T07:13:51.755Z,3.67
2023-04-12T07:16:19.025Z,4.03
2023-04-12T07:18:46.323Z,4.97
2023-04-12T07:21:14.495Z,3.53
2023-04-12T07:23:42.765Z,4.10
2023-04-12T07:26:09.731Z,3.07
2023-04-12T07:28:38.370Z,7.30
2023-04-12T07:31:08.550Z,7.47
2023-04-12T07:33:38.235Z,6.93
2023-04-12T07:36:07.811Z,7.83
2023-04-12T07:38:34.886Z,12.63
2023-04-12T07:41:01.921Z,11.57
2023-04-12T07:43:28.953Z,11.93
2023-04-12T07:45:56.440Z,7.83
2023-04-12T07:48:23.782Z,5.43
2023-04-12T07:50:51.459Z,3.00
2023-04-12T07:53:28.964Z,2.80
2023-04-12T07:55:58.942Z,6.43
2023-04-12T07:58:26.163Z,12.07
2023-04-12T08:00:54.063Z,1.20
2023-04-12T08:03:21.129Z,5.27
2023-04-12T08:05:53.440Z,1.60
2023-04-12T08:08:22.413Z,9.83
2023-04-12T08:10:50.685Z,3.50
2023-04-12T08:13:18.437Z,5.07
2023-04-12T08:15:47.261Z,2.83
2023-04-12T08:18:16.527Z,4.43
2023-04-12T08:20:44.336Z,2.43
2023-04-12T08:23:12.153Z,7.20
2023-04-12T08:25:39.693Z,7.93
2023-04-12T08:28:09.981Z,2.80
2023-04-12T08:30:37.266Z,3.23
2023-04-12T08:33:04.894Z,2.97
2023-04-12T08:35:32.726Z,5.97
2023-04-12T08:38:06.687Z,4.13
2023-04-12T08:40:34.041Z,3.77
2023-04-12T08:43:08.311Z,8.90
2023-04-12T08:45:36.581Z,4.83
2023-04-12T08:48:05.910Z,6.00
2023-04-12T08:50:33.544Z,10.23
2023-04-12T08:53:03.382Z,4.97
2023-04-12T08:55:30.556Z,3.53
2023-04-12T08:57:59.185Z,2.43
2023-04-12T09:00:27.135Z,7.30
2023-04-12T09:02:54.353Z,10.47
2023-04-12T09:05:30.132Z,5.43
2023-04-12T09:07:58.477Z,3.97
2023-04-12T09:10:37.169Z,4.57
2023-04-12T09:13:07.588Z,4.73
2023-04-12T09:15:35.400Z,3.47
2023-04-12T09:18:09.213Z,3.23
2023-04-12T09:20:38.050Z,7.10
2023-04-12T09:23:37.490Z,3.40
2023-04-12T09:26:05.482Z,4.80
2023-04-12T09:28:32.623Z,6.67
2023-04-12T09:31:00.908Z,9.93
2023-04-12T09:33:38.674Z,2.97
2023-04-12T09:36:13.495Z,3.67
2023-04-12T09:38:43.038Z,2.47
2023-04-12T09:41:26.471Z,5.60
2023-04-12T09:43:54.404Z,3.80
2023-04-12T09:46:22.910Z,2.60
2023-04-12T09:48:55.560Z,5.23
2023-04-12T09:51:34.118Z,4.73
2023-04-12T09:54:06.880Z,2.57
2023-04-12T09:56:36.603Z,4.47
2023-04-12T09:59:07.109Z,2.73
2023-04-12T10:01:40.493Z,1.93
2023-04-12T10:04:09.439Z,8.10
2023-04-12T10:06:37.366Z,3.27
2023-04-12T10:09:06.591Z,2.00
2023-04-12T10:11:34.767Z,2.80
2023-04-12T10:14:03.507Z,2.13
2023-04-12T10:16:32.041Z,2.97
2023-04-12T10:19:03.877Z,2.17
2023-04-12T10:21:33.829Z,5.37
2023-04-12T10:24:01.311Z,4.90
2023-04-12T10:26:28.348Z,2.17
2023-04-12T10:29:25.853Z,2.90
2023-04-12T10:32:23.454Z,2.63
2023-04-12T10:34:57.475Z,1.90
2023-04-12T10:38:02.502Z,1.60
2023-04-12T10:40:31.823Z,4.83
2023-04-12T10:43:23.312Z,1.70
2023-04-12T10:45:50.706Z,1.63
2023-04-12T10:48:36.657Z,3.53
2023-04-12T10:51:31.036Z,2.93
2023-04-12T10:54:07.929Z,1.87
2023-04-12T10:56:43.005Z,2.80
2023-04-12T10:59:16.572Z,1.83
2023-04-12T11:02:07.581Z,0.80
2023-04-12T11:04:36.196Z,3.07
2023-04-12T11:07:12.283Z,1.10
2023-04-12T11:09:42.825Z,4.20
2023-04-12T11:12:29.775Z,2.40
2023-04-12T11:15:01.565Z,1.53
2023-04-12T11:17:38.035Z,3.73
2023-04-12T11:20:06.582Z,5.50
2023-04-12T11:22:33.846Z,4.30
2023-04-12T11:25:03.179Z,1.80
2023-04-12T11:27:31.918Z,1.20
2023-04-12T11:30:00.920Z,2.03
2023-04-12T11:32:31.000Z,2.07
2023-04-12T11:34:58.962Z,3.50
2023-04-12T11:37:31.251Z,3.50
2023-04-12T11:39:59.184Z,2.67
2023-04-12T11:42:28.198Z,3.33
2023-04-12T11:45:01.615Z,1.43
2023-04-12T11:47:33.703Z,1.10
2023-04-12T11:50:00.821Z,1.57
2023-04-12T11:52:33.372Z,1.90
2023-04-12T11:55:06.894Z,2.00
2023-04-12T11:57:34.740Z,0.90
2023-04-12T12:00:06.730Z,3.27
2023-04-12T12:02:49.430Z,2.67
2023-04-12T12:05:26.427Z,1.40
2023-04-12T12:07:58.896Z,2.40
2023-04-12T12:10:43.605Z,2.97
2023-04-12T12:13:16.812Z,3.73
2023-04-12T12:15:45.741Z,1.73
2023-04-12T12:18:13.196Z,2.17
2023-04-12T12:20:50.329Z,4.53
2023-04-12T12:23:33.246Z,2.13
2023-04-12T12:26:19.148Z,1.90
2023-04-12T12:28:51.765Z,7.30
2023-04-12T12:31:28.256Z,0.97
2023-04-12T12:33:58.241Z,3.07
2023-04-12T12:36:34.389Z,2.13
2023-04-12T12:39:12.843Z,1.53
2023-04-12T12:41:41.742Z,2.23
2023-04-12T12:44:09.016Z,2.70
2023-04-12T12:49:06.167Z,1.73
2023-04-12T12:51:33.808Z,0.93
2023-04-12T12:54:01.367Z,1.30
2023-04-12T12:56:29.186Z,4.43
2023-04-12T12:58:57.078Z,2.50
2023-04-12T13:01:24.201Z,1.63
2023-04-12T13:03:51.430Z,3.10
2023-04-12T13:06:18.902Z,2.80
2023-04-12T13:08:46.920Z,1.90
2023-04-12T13:11:16.370Z,1.90
2023-04-12T13:13:44.087Z,7.07
2023-04-12T13:16:12.648Z,3.70
2023-04-12T13:18:41.391Z,2.80
2023-04-12T13:21:08.394Z,5.47
2023-04-12T13:23:37.416Z,2.20
2023-04-12T13:26:04.797Z,1.10
2023-04-12T13:28:32.108Z,5.07
2023-04-12T13:31:02.034Z,2.13
2023-04-12T13:33:29.034Z,5.13
2023-04-12T13:35:58.596Z,1.73
2023-04-12T13:38:25.583Z,1.20
2023-04-12T13:40:52.526Z,2.17
2023-04-12T13:43:19.665Z,2.87
2023-04-12T13:45:46.674Z,5.70
2023-04-12T13:48:13.669Z,2.93
2023-04-12T13:50:40.847Z,5.57
2023-04-12T13:53:08.856Z,3.23
2023-04-12T13:55:35.978Z,3.20
2023-04-12T13:58:02.922Z,3.50
2023-04-12T14:00:30.984Z,2.57
2023-04-12T14:02:58.050Z,1.10
2023-04-12T14:05:25.084Z,8.87
2023-04-12T14:07:52.590Z,1.60
2023-04-12T14:10:22.526Z,0.80
2023-04-12T14:12:49.536Z,4.35
2023-04-12T14:15:16.572Z,1.95
2023-04-12T14:17:43.657Z,1.93
2023-04-12T14:20:11.070Z,1.10
2023-04-12T14:22:38.227Z,3.00
2023-04-12T14:25:08.085Z,4.75
2023-04-12T14:27:36.514Z,2.95
2023-04-12T14:30:07.325Z,7.40
2023-04-12T14:32:34.941Z,4.93
2023-04-12T14:35:04.250Z,1.73
2023-04-12T14:37:33.181Z,3.22
2023-04-12T14:40:00.298Z,4.97
2023-04-12T14:42:28.842Z,3.63
2023-04-12T14:44:57.560Z,1.25
2023-04-12T14:47:25.116Z,4.28
2023-04-12T14:49:54.841Z,1.65
2023-04-12T14:52:21.848Z,3.58
2023-04-12T14:54:48.958Z,2.05
2023-04-12T14:57:16.338Z,3.35
2023-04-12T14:59:44.088Z,1.15
2023-04-12T15:02:11.177Z,3.57
2023-04-12T15:04:38.325Z,2.30
2023-04-12T15:07:05.370Z,1.60
2023-04-12T15:09:32.527Z,2.17
2023-04-12T15:12:02.435Z,3.50
2023-04-12T15:14:29.575Z,1.95
2023-04-12T15:16:57.152Z,3.22
2023-04-12T15:19:24.336Z,1.55
2023-04-12T15:21:52.639Z,4.28
2023-04-12T15:24:20.817Z,1.65
2023-04-12T15:26:50.876Z,4.40
2023-04-12T15:29:19.416Z,1.80
2023-04-12T15:31:47.035Z,0.95
2023-04-12T15:34:14.661Z,1.45
2023-04-12T15:36:43.281Z,2.65
2023-04-12T15:39:11.523Z,2.38
2023-04-12T15:41:40.712Z,1.77
2023-04-12T15:44:09.500Z,1.05
2023-04-12T15:46:36.494Z,2.42
2023-04-12T15:49:05.559Z,3.20
2023-04-12T15:51:33.282Z,5.10
2023-04-12T15:54:00.847Z,1.10
2023-04-12T15:56:29.733Z,2.03
2023-04-12T15:58:58.015Z,1.85
2023-04-12T16:01:25.659Z,3.03
2023-04-12T16:03:53.570Z,5.20
2023-04-12T16:06:21.183Z,2.93
2023-04-12T16:08:53.420Z,2.83
2023-04-12T16:11:25.809Z,18.40
2023-04-12T16:13:55.561Z,6.63
2023-04-12T16:16:23.591Z,5.13
2023-04-12T16:18:52.696Z,5.20
2023-04-12T16:21:23.227Z,4.67
2023-04-12T16:23:51.407Z,3.80
2023-04-12T16:26:21.965Z,3.83
2023-04-12T16:28:55.905Z,3.00
2023-04-12T16:31:25.462Z,3.13
2023-04-12T16:33:55.720Z,4.23
2023-04-12T16:36:27.459Z,7.27
2023-04-12T16:38:55.348Z,10.97
2023-04-12T16:41:23.908Z,6.77
2023-04-12T16:43:54.084Z,5.63
2023-04-12T16:46:22.993Z,17.90
2023-04-12T16:48:50.386Z,18.40
2023-04-12T16:51:20.044Z,19.03
2023-04-12T16:53:48.428Z,20.60
2023-04-12T16:56:17.296Z,66.20
2023-04-12T16:58:52.486Z,21.57
2023-04-12T17:01:21.465Z,14.80
2023-04-12T17:03:54.954Z,10.07
2023-04-12T17:06:24.463Z,22.27
2023-04-12T17:08:55.231Z,19.30
2023-04-12T17:11:24.241Z,17.53
2023-04-12T17:13:56.508Z,39.97
2023-04-12T17:16:24.847Z,16.87
2023-04-12T17:18:54.684Z,10.73
2023-04-12T17:21:23.011Z,16.07
2023-04-12T17:23:52.335Z,14.60
2023-04-12T17:26:27.450Z,32.67
2023-04-12T17:28:55.245Z,29.10
2023-04-12T17:31:42.881Z,25.93
2023-04-12T17:34:13.502Z,20.70
2023-04-12T17:36:44.955Z,30.77
2023-04-12T17:39:12.818Z,44.53
2023-04-12T17:41:43.701Z,59.20
2023-04-12T17:44:10.828Z,28.43
2023-04-12T17:46:38.089Z,33.53
2023-04-12T17:49:06.820Z,25.57
2023-04-12T17:51:33.891Z,7.87
2023-04-12T17:54:05.714Z,8.63
2023-04-12T17:56:34.013Z,7.00
2023-04-12T17:59:06.478Z,18.07
2023-04-12T18:01:35.467Z,12.27
2023-04-12T18:04:08.440Z,19.57
2023-04-12T18:06:36.120Z,11.10
2023-04-12T18:09:04.971Z,11.30
2023-04-12T18:11:38.775Z,6.87
2023-04-12T18:14:16.945Z,6.03
2023-04-12T18:16:44.822Z,8.83
2023-04-12T18:19:13.340Z,8.70
2023-04-12T18:21:47.142Z,5.43
2023-04-12T18:24:18.305Z,5.63
2023-04-12T18:26:46.459Z,6.37
2023-04-12T18:29:15.955Z,6.57
2023-04-12T18:31:43.726Z,5.27
2023-04-12T18:34:14.336Z,5.77
2023-04-12T18:36:42.408Z,9.83
2023-04-12T18:39:09.517Z,10.53
2023-04-12T18:41:36.595Z,14.90
2023-04-12T18:44:03.943Z,19.70
2023-04-12T18:46:30.973Z,23.33
2023-04-12T18:49:02.888Z,27.67
2023-04-12T18:51:53.367Z,22.03
2023-04-12T18:54:31.516Z,16.77
2023-04-12T18:57:03.551Z,19.70
2023-04-12T18:59:31.476Z,17.20
2023-04-12T19:01:58.566Z,16.67
2023-04-12T19:04:26.161Z,20.57
2023-04-12T19:06:53.393Z,14.97
2023-04-12T19:09:20.780Z,16.47
2023-04-12T19:11:49.195Z,14.13
2023-04-12T19:14:16.394Z,12.40
2023-04-12T19:16:43.711Z,13.73
2023-04-12T19:19:11.120Z,13.30
2023-04-12T19:21:38.282Z,12.50
2023-04-12T19:24:06.292Z,16.27
2023-04-12T19:26:36.800Z,14.97
2023-04-12T19:29:04.092Z,4.67
2023-04-12T19:31:31.370Z,3.57
2023-04-12T19:33:59.795Z,4.90
2023-04-12T19:36:27.643Z,3.47
2023-04-12T19:38:54.954Z,4.77
2023-04-12T19:41:23.858Z,2.77
2023-04-12T19:43:52.879Z,4.03
2023-04-12T19:46:22.499Z,8.97
2023-04-12T19:48:49.663Z,12.97
2023-04-12T19:51:17.465Z,12.53
2023-04-12T19:53:49.839Z,9.37
2023-04-12T19:56:17.758Z,6.33
2023-04-12T19:58:47.021Z,12.93
2023-04-12T20:01:16.150Z,12.57
2023-04-12T20:03:44.248Z,17.07
2023-04-12T20:06:11.579Z,12.33
2023-04-12T20:08:39.965Z,11.00
2023-04-12T20:11:08.259Z,2.93
2023-04-12T20:13:39.115Z,4.80
2023-04-12T20:16:07.323Z,6.53
2023-04-12T20:18:35.594Z,2.80
2023-04-12T20:21:04.871Z,5.30
2023-04-12T20:23:32.283Z,3.77
2023-04-12T20:26:00.319Z,10.73
2023-04-12T20:28:31.829Z,2.67
2023-04-12T20:30:58.980Z,3.80
2023-04-12T20:33:26.839Z,5.90
2023-04-12T20:35:54.231Z,8.97
2023-04-12T20:38:21.257Z,8.83
2023-04-12T20:40:48.773Z,7.97
2023-04-12T20:43:16.573Z,6.63
2023-04-12T20:45:43.509Z,3.43
2023-04-12T20:48:11.215Z,6.00
2023-04-12T20:50:41.014Z,5.57
2023-04-12T20:53:09.822Z,4.50
2023-04-12T20:55:36.785Z,3.97
2023-04-12T20:58:04.831Z,3.80
2023-04-12T21:00:33.786Z,3.00
2023-04-12T21:03:04.169Z,3.23
2023-04-12T21:05:35.758Z,3.20
2023-04-12T21:08:02.728Z,3.50
2023-04-12T21:10:29.678Z,2.97
2023-04-12T21:12:58.295Z,4.00
2023-04-12T21:15:25.396Z,2.70
2023-04-12T21:17:52.366Z,5.67
2023-04-12T21:20:19.842Z,2.47
2023-04-12T21:22:47.985Z,3.90
2023-04-12T21:25:16.993Z,4.07
2023-04-12T21:27:47.717Z,4.63
2023-04-12T21:30:15.675Z,4.33
2023-04-12T21:32:43.806Z,4.53
2023-04-12T21:35:11.713Z,41.73
2023-04-12T21:37:40.042Z,8.50
2023-04-12T21:40:12.705Z,6.80
2023-04-12T21:42:41.002Z,6.20
2023-04-12T21:45:13.868Z,4.47
2023-04-12T21:47:42.577Z,8.97
2023-04-12T21:50:10.816Z,7.77
2023-04-12T21:52:41.136Z,7.90
2023-04-12T21:55:08.523Z,36.73
2023-04-12T21:57:36.463Z,16.53
2023-04-12T22:00:10.212Z,7.30
2023-04-12T22:02:41.056Z,26.17
2023-04-12T22:05:08.782Z,41.47
2023-04-12T22:07:35.841Z,37.33
2023-04-12T22:10:03.021Z,6.87
2023-04-12T22:12:30.074Z,5.47
2023-04-12T22:14:57.631Z,6.30
2023-04-12T22:17:25.015Z,5.20
2023-04-12T22:19:56.511Z,6.50
2023-04-12T22:22:30.054Z,5.73
2023-04-12T22:24:57.078Z,4.23
2023-04-12T22:27:26.565Z,3.53
2023-04-12T22:29:53.788Z,4.30
2023-04-12T22:32:20.731Z,4.20
2023-04-12T22:34:54.845Z,2.23
2023-04-12T22:37:28.432Z,4.57
2023-04-12T22:39:55.452Z,2.07
2023-04-12T22:42:26.498Z,2.50
2023-04-12T22:44:54.285Z,3.10
2023-04-12T22:47:21.250Z,3.47
2023-04-12T22:49:50.944Z,2.33
2023-04-12T22:52:18.036Z,4.67
2023-04-12T22:54:47.995Z,3.40
2023-04-12T22:57:15.755Z,3.10
2023-04-12T22:59:42.658Z,4.20
2023-04-12T23:02:09.767Z,2.40
2023-04-12T23:04:36.774Z,4.27
2023-04-12T23:07:04.791Z,5.73
2023-04-12T23:09:33.341Z,3.10
2023-04-12T23:12:00.612Z,4.03
2023-04-12T23:14:29.843Z,3.13
2023-04-12T23:16:57.144Z,3.30
2023-04-12T23:19:24.382Z,7.80
2023-04-12T23:21:51.317Z,2.40
2023-04-12T23:24:18.541Z,3.17
2023-04-12T23:26:45.986Z,2.73
2023-04-12T23:29:13.863Z,4.43
2023-04-12T23:31:42.060Z,2.83
2023-04-12T23:34:09.149Z,4.07
2023-04-12T23:36:36.249Z,3.57
2023-04-12T23:39:08.554Z,9.00
2023-04-12T23:41:35.668Z,4.20
2023-04-12T23:44:02.664Z,5.07
2023-04-12T23:46:29.706Z,4.67
2023-04-12T23:48:56.845Z,4.07
2023-04-12T23:51:23.729Z,2.93
2023-04-12T23:53:50.702Z,2.60
2023-04-12T23:56:17.724Z,4.03
2023-04-12T23:58:44.698Z,4.17
